Nearby METAR Reports

 

YMML - Melbourne Intl A, Australia
Distance from station: SSW 13km
Updated: Fri, 19-Apr-2019 3:00pm AEST
Clear
Clear
 Wind from SSE
Wind: SSE 11 km/h
Temperature: 22°C
Dew Point: 6°C
Humidity: 36%
Barometer: 1024 hPa
Summary: Clear
Visibility: greater than 10 km
2019/04/19 05:00 YMML 190500Z 15006KT CAVOK 22/06 Q1024
YMEN - Melbourne/Essend, Australia
Distance from station: S 16km
Updated: Fri, 19-Apr-2019 3:00pm AEST
Clear
Clear
 Wind from SE
Wind: SE 7 km/h
Temperature: 22°C
Dew Point: 7°C
Humidity: 38%
Barometer: 1024 hPa
Clouds: Clear
Visibility: 10 km
2019/04/19 05:00 YMEN 190500Z AUTO 14004KT 080V170 9999 // NCD 22/07 Q1024
 
YMAV - Avalon Airport, Australia
Distance from station: SW 63km
Updated: Fri, 19-Apr-2019 3:00pm AEST
Clear
Clear
 Wind from SSE
Wind: SSE 13 km/h
Temperature: 19°C
Dew Point: 8°C
Humidity: 49%
Barometer: 1024 hPa
Clouds: Clear
Visibility: 10 km
2019/04/19 05:00 YMAV 190500Z AUTO 15007KT 120V190 9999 // NCD 19/08 Q1024

Metar display script from Saratoga-Weather.org